Time;durP1;ratioP1;P1;durP2;ratioP2;P2;SDS_P1;SDS_P2;PMS_P1;PMS_P2;Temp;Humidity;BMP_temperature;BMP_pressure;BME280_temperature;BME280_humidity;BME280_pressure;Samples;Min_cycle;Max_cycle;Signal;HPM_P1;HPM_P2
2022/01/19 00:00:54;;;;;;;;;;;4.30;99.90;;;;;;5146748;27;19934;-57
2022/01/19 00:03:19;;;;;;;;;;;4.70;99.90;;;;;;5130091;27;20266;-57
2022/01/19 00:05:45;;;;;;;;;;;4.60;99.90;;;;;;5139382;27;19980;-56
2022/01/19 00:08:16;;;;;;;;;;;4.10;99.90;;;;;;5143619;27;20392;-56
2022/01/19 00:10:43;;;;;;;;;;;4.30;99.90;;;;;;5131270;27;20363;-60
2022/01/19 00:13:08;;;;;;;;;;;4.20;99.90;;;;;;5147559;27;19927;-59
2022/01/19 00:15:34;;;;;;;;;;;4.20;99.90;;;;;;5138770;27;20365;-63
2022/01/19 00:18:00;;;;;;;;;;;4.20;99.90;;;;;;5137090;27;20018;-56
2022/01/19 00:20:26;;;;;;;;;;;4.20;99.90;;;;;;5145817;27;20373;-59
2022/01/19 00:22:53;;;;;;;;;;;4.20;99.90;;;;;;5132710;27;19938;-56
2022/01/19 00:25:19;;;;;;;;;;;4.20;99.90;;;;;;5142572;27;19979;-57
2022/01/19 00:27:45;;;;;;;;;;;4.10;99.90;;;;;;5139257;27;19927;-64
2022/01/19 00:30:11;;;;;;;;;;;4.20;99.90;;;;;;5129999;27;19934;-56
2022/01/19 00:32:36;;;;;;;;;;;4.20;99.90;;;;;;5131056;27;19967;-56
2022/01/19 00:35:03;;;;;;;;;;;4.20;99.90;;;;;;5145296;27;20469;-61
2022/01/19 00:37:28;;;;;;;;;;;4.20;99.90;;;;;;5137604;27;19979;-59
2022/01/19 00:39:54;;;;;;;;;;;4.70;99.90;;;;;;5148009;27;19927;-59
2022/01/19 00:42:19;;;;;;;;;;;4.20;99.90;;;;;;5133608;27;19928;-56
2022/01/19 00:44:45;;;;;;;;;;;4.20;99.90;;;;;;5143965;27;19962;-56
2022/01/19 00:47:11;;;;;;;;;;;4.20;99.90;;;;;;5134294;27;19949;-56
2022/01/19 00:49:36;;;;;;;;;;;4.20;99.90;;;;;;5140154;27;19927;-56
2022/01/19 00:52:02;;;;;;;;;;;4.20;99.90;;;;;;5141905;27;20560;-56
2022/01/19 00:54:28;;;;;;;;;;;4.20;99.90;;;;;;5132704;27;19934;-57
2022/01/19 00:56:53;;;;;;;;;;;4.20;99.90;;;;;;5145723;27;19927;-56
2022/01/19 00:59:19;;;;;;;;;;;4.30;99.90;;;;;;5135933;27;20304;-57
2022/01/19 01:01:44;;;;;;;;;;;4.30;99.90;;;;;;5138747;27;19927;-60
2022/01/19 01:04:10;;;;;;;;;;;4.70;99.90;;;;;;5129007;27;19935;-58
2022/01/19 01:06:36;;;;;;;;;;;4.30;99.90;;;;;;5138986;27;19934;-59
2022/01/19 01:09:02;;;;;;;;;;;4.30;99.90;;;;;;5145139;27;20400;-60
2022/01/19 01:11:29;;;;;;;;;;;4.30;99.90;;;;;;5137085;27;19934;-57
2022/01/19 01:16:40;;;;;;;;;;;4.30;99.90;;;;;;5133360;27;19980;-60
2022/01/19 01:19:07;;;;;;;;;;;4.30;99.90;;;;;;5133929;27;19931;-60
2022/01/19 01:21:33;;;;;;;;;;;4.30;99.90;;;;;;5140604;27;19932;-59
2022/01/19 01:23:58;;;;;;;;;;;4.30;99.90;;;;;;5139478;27;20276;-60
2022/01/19 01:26:24;;;;;;;;;;;4.30;99.90;;;;;;5144740;27;19934;-60
2022/01/19 01:28:49;;;;;;;;;;;4.30;99.90;;;;;;5127412;27;19935;-59
2022/01/19 01:31:15;;;;;;;;;;;4.30;99.90;;;;;;5129961;27;19935;-59
2022/01/19 01:33:41;;;;;;;;;;;4.30;99.90;;;;;;5138526;27;20288;-60
2022/01/19 01:36:06;;;;;;;;;;;4.40;99.90;;;;;;5135192;27;19928;-60
2022/01/19 01:38:32;;;;;;;;;;;4.40;99.90;;;;;;5145285;27;20374;-61
2022/01/19 01:40:58;;;;;;;;;;;4.30;99.90;;;;;;5143785;27;19927;-60
2022/01/19 01:43:24;;;;;;;;;;;4.30;99.90;;;;;;5136054;27;19970;-56
2022/01/19 01:45:53;;;;;;;;;;;4.40;99.90;;;;;;5137410;27;20482;-56
2022/01/19 01:48:22;;;;;;;;;;;4.40;99.90;;;;;;5143757;27;19927;-56
2022/01/19 01:53:33;;;;;;;;;;;4.30;99.90;;;;;;5140136;27;20535;-57
2022/01/19 01:56:10;;;;;;;;;;;4.30;99.90;;;;;;5141847;27;20010;-56
2022/01/19 01:58:37;;;;;;;;;;;4.30;99.90;;;;;;5138552;27;19934;-56
2022/01/19 02:01:03;;;;;;;;;;;4.40;99.90;;;;;;5148073;27;19931;-58
2022/01/19 02:03:29;;;;;;;;;;;4.40;99.90;;;;;;5132145;27;19934;-58
2022/01/19 02:08:40;;;;;;;;;;;4.40;99.90;;;;;;5149131;27;20297;-59
2022/01/19 02:11:33;;;;;;;;;;;4.40;99.90;;;;;;5136988;27;19927;-59
2022/01/19 02:22:00;;;;;;;;;;;4.40;99.90;;;;;;5142458;27;20455;-62
2022/01/19 02:24:42;;;;;;;;;;;4.40;99.90;;;;;;5135362;27;19927;-58
2022/01/19 02:28:58;;;;;;;;;;;4.30;99.90;;;;;;5136586;27;19928;-56
2022/01/19 02:40:51;;;;;;;;;;;5.00;99.90;;;;;;5147442;27;20379;-60
2022/01/19 02:43:25;;;;;;;;;;;4.30;99.90;;;;;;5138017;27;19949;-58
2022/01/19 02:51:19;;;;;;;;;;;4.30;99.90;;;;;;5144983;27;20014;-58
2022/01/19 02:53:45;;;;;;;;;;;4.40;99.90;;;;;;5141992;27;20014;-58
2022/01/19 02:56:17;;;;;;;;;;;4.40;99.90;;;;;;5136846;27;20408;-57
2022/01/19 02:58:44;;;;;;;;;;;4.40;99.90;;;;;;5147161;27;20376;-56
2022/01/19 03:09:21;;;;;;;;;;;4.30;99.90;;;;;;5144359;27;19927;-55
2022/01/19 03:11:47;;;;;;;;;;;4.30;99.90;;;;;;5141809;27;19927;-56
2022/01/19 03:14:13;;;;;;;;;;;4.30;99.90;;;;;;5148486;27;20018;-66
2022/01/19 03:16:38;;;;;;;;;;;4.30;99.90;;;;;;5132936;27;20292;-57
2022/01/19 03:19:06;;;;;;;;;;;4.40;99.90;;;;;;5135507;27;20049;-62
2022/01/19 03:21:32;;;;;;;;;;;4.40;99.90;;;;;;5142317;27;19933;-56
2022/01/19 03:23:58;;;;;;;;;;;4.40;99.90;;;;;;5141323;27;19927;-56
2022/01/19 03:26:23;;;;;;;;;;;4.30;99.90;;;;;;5146218;27;20357;-56
2022/01/19 03:28:49;;;;;;;;;;;4.40;99.90;;;;;;5131272;27;20392;-59
2022/01/19 03:31:15;;;;;;;;;;;4.40;99.90;;;;;;5131698;27;19927;-59
2022/01/19 03:33:40;;;;;;;;;;;4.40;99.90;;;;;;5140520;27;19927;-56
2022/01/19 03:36:06;;;;;;;;;;;4.40;99.90;;;;;;5135207;27;19927;-57
2022/01/19 03:38:31;;;;;;;;;;;4.40;99.90;;;;;;5147221;27;19927;-56
2022/01/19 03:40:57;;;;;;;;;;;4.30;99.90;;;;;;5145602;27;19935;-56
2022/01/19 03:43:22;;;;;;;;;;;4.30;99.90;;;;;;5137860;27;20394;-56
2022/01/19 03:45:53;;;;;;;;;;;4.30;99.90;;;;;;5141854;27;20341;-56
2022/01/19 03:50:53;;;;;;;;;;;4.20;99.90;;;;;;5147258;27;19970;-55
2022/01/19 03:53:19;;;;;;;;;;;4.20;99.90;;;;;;5136965;27;19974;-56
2022/01/19 03:55:44;;;;;;;;;;;4.20;99.90;;;;;;5139787;27;19932;-56
2022/01/19 03:58:10;;;;;;;;;;;4.20;99.90;;;;;;5143640;27;19934;-55
2022/01/19 04:00:41;;;;;;;;;;;4.20;99.90;;;;;;5131998;27;19928;-56
2022/01/19 04:03:07;;;;;;;;;;;4.20;99.90;;;;;;5149949;27;19927;-56
2022/01/19 04:06:17;;;;;;;;;;;4.10;99.90;;;;;;5141380;27;19931;-56
2022/01/19 04:08:25;;;;;;;;;;;4.10;99.90;;;;;;5143611;27;20014;-55
2022/01/19 04:10:51;;;;;;;;;;;4.10;99.90;;;;;;5133214;27;20214;-63
2022/01/19 04:15:55;;;;;;;;;;;4.10;99.90;;;;;;5131927;27;19935;-56
2022/01/19 04:18:21;;;;;;;;;;;4.10;99.90;;;;;;5145102;27;19927;-59
2022/01/19 04:20:50;;;;;;;;;;;4.10;99.90;;;;;;5132837;27;19935;-58
2022/01/19 04:23:16;;;;;;;;;;;4.10;99.90;;;;;;5143390;27;20502;-65
2022/01/19 04:25:42;;;;;;;;;;;4.10;99.90;;;;;;5139644;27;19929;-64
2022/01/19 04:28:08;;;;;;;;;;;4.50;99.90;;;;;;5135884;27;19927;-66
2022/01/19 04:30:34;;;;;;;;;;;4.50;99.90;;;;;;5130287;27;20047;-57
2022/01/19 04:33:09;;;;;;;;;;;4.10;99.90;;;;;;5134338;27;19927;-57
2022/01/19 04:35:45;;;;;;;;;;;4.10;99.90;;;;;;5140319;27;19934;-56
2022/01/19 05:07:37;;;;;;;;;;;4.10;99.90;;;;;;5137323;27;19927;-56
2022/01/19 05:15:13;;;;;;;;;;;4.10;99.90;;;;;;5134536;27;19976;-57
2022/01/19 05:17:38;;;;;;;;;;;4.10;99.90;;;;;;5139589;27;19931;-57
2022/01/19 05:20:05;;;;;;;;;;;4.10;99.90;;;;;;5142136;27;19927;-58
2022/01/19 05:22:30;;;;;;;;;;;4.10;99.90;;;;;;5132030;27;19949;-56
2022/01/19 05:24:56;;;;;;;;;;;4.80;99.90;;;;;;5142620;27;20389;-57
2022/01/19 05:27:22;;;;;;;;;;;4.10;99.90;;;;;;5141888;27;19935;-57
2022/01/19 05:29:48;;;;;;;;;;;4.40;99.90;;;;;;5130193;27;19934;-56
2022/01/19 05:32:13;;;;;;;;;;;4.10;99.90;;;;;;5134108;27;19931;-57
2022/01/19 05:34:39;;;;;;;;;;;4.10;99.90;;;;;;5149094;27;19929;-56
2022/01/19 05:37:05;;;;;;;;;;;4.10;99.90;;;;;;5137629;27;20296;-57
2022/01/19 05:39:30;;;;;;;;;;;4.10;99.90;;;;;;5149946;27;20377;-62
2022/01/19 05:41:56;;;;;;;;;;;4.10;99.90;;;;;;5141203;27;19933;-61
2022/01/19 05:44:21;;;;;;;;;;;4.10;99.90;;;;;;5148433;27;19995;-61
2022/01/19 05:46:47;;;;;;;;;;;4.10;99.90;;;;;;5135720;27;19934;-57
2022/01/19 05:49:12;;;;;;;;;;;4.10;99.90;;;;;;5147323;27;19942;-58
2022/01/19 05:51:38;;;;;;;;;;;4.10;99.90;;;;;;5142131;27;19931;-60
2022/01/19 05:54:04;;;;;;;;;;;4.30;99.90;;;;;;5139995;27;20039;-62
2022/01/19 05:56:29;;;;;;;;;;;4.10;99.90;;;;;;5148018;27;19931;-63
2022/01/19 05:58:55;;;;;;;;;;;4.10;99.90;;;;;;5135441;27;19972;-63
2022/01/19 06:01:20;;;;;;;;;;;4.20;99.90;;;;;;5145933;27;19927;-68
2022/01/19 06:03:46;;;;;;;;;;;4.10;99.90;;;;;;5132019;27;19977;-56
2022/01/19 06:06:12;;;;;;;;;;;4.20;99.90;;;;;;5141903;27;20372;-56
2022/01/19 06:08:44;;;;;;;;;;;4.20;99.90;;;;;;5142167;27;19927;-56
2022/01/19 06:11:10;;;;;;;;;;;4.20;99.90;;;;;;5135757;27;20334;-56
2022/01/19 06:13:36;;;;;;;;;;;4.20;99.90;;;;;;5135273;27;19927;-56
2022/01/19 06:16:02;;;;;;;;;;;4.20;99.90;;;;;;5134588;27;20010;-56
2022/01/19 06:18:28;;;;;;;;;;;4.10;99.90;;;;;;5131609;27;19927;-56
2022/01/19 06:20:53;;;;;;;;;;;4.20;99.90;;;;;;5134191;27;19931;-59
2022/01/19 06:23:19;;;;;;;;;;;4.30;99.90;;;;;;5138230;27;19972;-59
2022/01/19 06:25:44;;;;;;;;;;;4.20;99.90;;;;;;5134979;27;19931;-60
2022/01/19 06:28:10;;;;;;;;;;;4.20;99.90;;;;;;5136564;27;20014;-59
2022/01/19 06:30:36;;;;;;;;;;;4.10;99.90;;;;;;5135731;27;19934;-57
2022/01/19 06:33:02;;;;;;;;;;;4.10;99.90;;;;;;5135017;27;19928;-58
2022/01/19 06:35:27;;;;;;;;;;;4.10;99.90;;;;;;5132044;27;20362;-57
2022/01/19 06:37:53;;;;;;;;;;;4.10;99.90;;;;;;5134948;27;19935;-56
2022/01/19 06:40:20;;;;;;;;;;;4.10;99.90;;;;;;5127710;27;19928;-57
2022/01/19 06:42:46;;;;;;;;;;;4.10;99.90;;;;;;5135468;27;19935;-58
2022/01/19 06:45:12;;;;;;;;;;;4.10;99.90;;;;;;5133508;27;19927;-58
2022/01/19 06:47:38;;;;;;;;;;;4.20;99.90;;;;;;5140244;27;19946;-59
2022/01/19 06:50:05;;;;;;;;;;;4.10;99.90;;;;;;5138914;27;19927;-58
2022/01/19 06:52:31;;;;;;;;;;;4.10;99.90;;;;;;5135960;27;19927;-58
2022/01/19 06:54:57;;;;;;;;;;;4.30;99.90;;;;;;5146040;27;20387;-60
2022/01/19 06:57:22;;;;;;;;;;;4.10;99.90;;;;;;5144272;27;20383;-56
2022/01/19 06:59:51;;;;;;;;;;;4.10;99.90;;;;;;5133851;27;19993;-59
2022/01/19 07:02:20;;;;;;;;;;;4.10;99.90;;;;;;5146822;27;19970;-61
2022/01/19 07:04:49;;;;;;;;;;;4.20;99.90;;;;;;5148488;27;20010;-63
2022/01/19 07:07:18;;;;;;;;;;;4.10;99.90;;;;;;5138328;27;19930;-62
2022/01/19 07:09:44;;;;;;;;;;;4.20;99.90;;;;;;5130605;27;19927;-63
2022/01/19 07:12:10;;;;;;;;;;;4.20;99.90;;;;;;5133621;27;19949;-55
2022/01/19 07:14:35;;;;;;;;;;;4.20;99.90;;;;;;5137513;27;20304;-56
2022/01/19 07:17:01;;;;;;;;;;;4.20;99.90;;;;;;5132552;27;19979;-59
2022/01/19 07:19:28;;;;;;;;;;;4.30;99.90;;;;;;5139546;27;20244;-61
2022/01/19 07:21:53;;;;;;;;;;;4.20;99.90;;;;;;5142284;27;19931;-67
2022/01/19 07:24:19;;;;;;;;;;;4.20;99.90;;;;;;5135314;27;19927;-65
2022/01/19 07:26:44;;;;;;;;;;;4.20;99.90;;;;;;5147172;27;19926;-58
2022/01/19 07:29:10;;;;;;;;;;;4.30;99.90;;;;;;5129693;27;20429;-62
2022/01/19 07:31:35;;;;;;;;;;;4.20;99.90;;;;;;5132142;27;19934;-61
2022/01/19 07:34:01;;;;;;;;;;;5.00;99.90;;;;;;5128090;27;20036;-62
2022/01/19 07:36:27;;;;;;;;;;;4.20;99.90;;;;;;5137276;27;19960;-62
2022/01/19 07:38:52;;;;;;;;;;;4.20;99.90;;;;;;5145288;27;20494;-64
2022/01/19 07:41:18;;;;;;;;;;;4.20;99.90;;;;;;5138806;27;19934;-56
2022/01/19 07:43:43;;;;;;;;;;;4.20;99.90;;;;;;5139409;27;19931;-56
2022/01/19 07:46:09;;;;;;;;;;;4.20;99.90;;;;;;5134415;27;19966;-56
2022/01/19 07:48:35;;;;;;;;;;;4.20;99.90;;;;;;5131495;27;20369;-56
2022/01/19 07:51:00;;;;;;;;;;;4.20;99.90;;;;;;5146087;27;19935;-59
2022/01/19 07:53:26;;;;;;;;;;;4.20;99.90;;;;;;5137020;27;19949;-57
2022/01/19 07:55:51;;;;;;;;;;;4.20;99.90;;;;;;5139868;27;20017;-59
2022/01/19 07:58:17;;;;;;;;;;;4.40;99.90;;;;;;5148279;27;20368;-56
2022/01/19 08:00:43;;;;;;;;;;;3.70;99.90;;;;;;5132524;27;20460;-59
2022/01/19 08:03:09;;;;;;;;;;;4.20;99.90;;;;;;5148204;27;19927;-59
2022/01/19 08:05:34;;;;;;;;;;;4.20;99.90;;;;;;5138503;27;19927;-57
2022/01/19 08:08:02;;;;;;;;;;;4.20;99.90;;;;;;5141558;27;19927;-56
2022/01/19 08:10:29;;;;;;;;;;;4.10;99.90;;;;;;5132799;27;20459;-59
2022/01/19 08:12:55;;;;;;;;;;;4.10;99.90;;;;;;5145022;27;19931;-59
2022/01/19 08:15:21;;;;;;;;;;;4.10;99.90;;;;;;5128912;27;19973;-55
2022/01/19 08:17:46;;;;;;;;;;;4.30;99.90;;;;;;5130484;27;19931;-56
2022/01/19 08:20:12;;;;;;;;;;;4.20;99.90;;;;;;5129017;27;19934;-56
2022/01/19 08:22:38;;;;;;;;;;;4.20;99.90;;;;;;5131696;27;19931;-56
2022/01/19 08:25:04;;;;;;;;;;;4.30;99.90;;;;;;5130733;27;19928;-60
2022/01/19 08:27:29;;;;;;;;;;;4.20;99.90;;;;;;5127894;27;19931;-56
2022/01/19 08:29:55;;;;;;;;;;;4.20;99.90;;;;;;5129110;27;19927;-56
2022/01/19 08:32:20;;;;;;;;;;;4.10;99.90;;;;;;5129777;27;20392;-55
2022/01/19 08:34:46;;;;;;;;;;;4.70;99.90;;;;;;5129472;27;19931;-56
2022/01/19 08:37:15;;;;;;;;;;;4.10;99.90;;;;;;5136533;27;19935;-56
2022/01/19 08:39:43;;;;;;;;;;;4.20;99.90;;;;;;5137730;27;20014;-56
2022/01/19 08:42:10;;;;;;;;;;;4.20;99.90;;;;;;5136449;27;19923;-56
2022/01/19 08:44:37;;;;;;;;;;;4.20;99.90;;;;;;5145977;27;19934;-57
2022/01/19 08:47:02;;;;;;;;;;;4.20;99.90;;;;;;5131476;27;19999;-56
2022/01/19 08:49:28;;;;;;;;;;;4.10;99.90;;;;;;5140057;27;20189;-56
2022/01/19 08:51:54;;;;;;;;;;;4.20;99.90;;;;;;5139655;27;20007;-55
2022/01/19 08:54:19;;;;;;;;;;;4.10;99.90;;;;;;5133904;27;20289;-59
2022/01/19 08:56:45;;;;;;;;;;;4.50;99.90;;;;;;5130651;27;20315;-58
2022/01/19 08:59:10;;;;;;;;;;;4.20;99.90;;;;;;5129989;27;19931;-59
2022/01/19 09:01:36;;;;;;;;;;;4.30;99.90;;;;;;5128901;27;19988;-56
2022/01/19 09:04:02;;;;;;;;;;;4.20;99.90;;;;;;5130688;27;19934;-55
2022/01/19 09:06:27;;;;;;;;;;;4.30;99.90;;;;;;5129505;27;19931;-56
2022/01/19 09:08:53;;;;;;;;;;;4.30;99.90;;;;;;5130768;27;19982;-62
2022/01/19 09:11:18;;;;;;;;;;;4.30;99.90;;;;;;5130227;27;19927;-59
2022/01/19 09:13:44;;;;;;;;;;;4.40;99.90;;;;;;5130635;27;20026;-66
2022/01/19 09:16:10;;;;;;;;;;;4.40;99.90;;;;;;5127865;27;20264;-62
2022/01/19 09:18:35;;;;;;;;;;;4.40;99.90;;;;;;5129265;27;20373;-61
2022/01/19 09:21:01;;;;;;;;;;;4.40;99.90;;;;;;5132604;27;20296;-60
2022/01/19 09:23:27;;;;;;;;;;;4.50;99.90;;;;;;5132621;27;20455;-61
2022/01/19 09:25:52;;;;;;;;;;;4.60;99.90;;;;;;5139306;27;19947;-62
2022/01/19 09:28:18;;;;;;;;;;;4.60;99.90;;;;;;5133143;27;20009;-64
2022/01/19 09:30:45;;;;;;;;;;;4.60;99.90;;;;;;5130174;27;20301;-60
2022/01/19 09:33:19;;;;;;;;;;;4.70;99.90;;;;;;5133956;27;19965;-59
2022/01/19 09:36:03;;;;;;;;;;;4.70;99.90;;;;;;5138103;27;19934;-60
2022/01/19 09:38:31;;;;;;;;;;;4.80;99.90;;;;;;5142688;27;20249;-68
2022/01/19 09:40:57;;;;;;;;;;;4.80;99.90;;;;;;5140417;27;20313;-60
2022/01/19 09:43:23;;;;;;;;;;;4.90;99.90;;;;;;5136458;27;20337;-63
2022/01/19 09:45:53;;;;;;;;;;;4.90;99.90;;;;;;5125719;27;20018;-55
2022/01/19 09:48:18;;;;;;;;;;;5.10;99.90;;;;;;5128682;27;19980;-57
2022/01/19 09:50:44;;;;;;;;;;;5.10;99.90;;;;;;5128967;27;19931;-57
2022/01/19 09:53:10;;;;;;;;;;;5.20;99.90;;;;;;5142894;27;19927;-56
2022/01/19 09:55:38;;;;;;;;;;;5.20;99.90;;;;;;5137291;27;20379;-56
2022/01/19 09:58:04;;;;;;;;;;;5.50;99.90;;;;;;5139191;27;19932;-56
2022/01/19 10:00:30;;;;;;;;;;;5.10;99.90;;;;;;5135984;27;20292;-55
2022/01/19 10:03:14;;;;;;;;;;;5.20;99.90;;;;;;5128323;27;19932;-57
2022/01/19 10:05:58;;;;;;;;;;;5.20;99.90;;;;;;5130063;27;19928;-56
2022/01/19 10:08:33;;;;;;;;;;;5.30;99.90;;;;;;5131206;27;20450;-56
2022/01/19 10:11:19;;;;;;;;;;;5.30;99.90;;;;;;5127673;27;19927;-56
2022/01/19 10:19:20;;;;;;;;;;;5.40;99.90;;;;;;5137645;27;19971;-56
2022/01/19 10:22:00;;;;;;;;;;;5.40;99.90;;;;;;5140300;27;20655;-59
2022/01/19 10:24:32;;;;;;;;;;;5.40;99.90;;;;;;5141296;27;20380;-56
2022/01/19 10:27:17;;;;;;;;;;;5.30;99.90;;;;;;5134715;27;20352;-58
2022/01/19 10:29:42;;;;;;;;;;;5.30;99.90;;;;;;5140893;27;19933;-64
2022/01/19 10:32:08;;;;;;;;;;;5.30;99.90;;;;;;5142863;27;19938;-64
2022/01/19 10:34:34;;;;;;;;;;;5.20;99.90;;;;;;5133999;27;20014;-68
2022/01/19 10:37:04;;;;;;;;;;;5.30;99.90;;;;;;5149717;27;20044;-63
2022/01/19 10:39:46;;;;;;;;;;;5.20;99.90;;;;;;5135362;27;19933;-66
2022/01/19 10:42:15;;;;;;;;;;;5.20;99.90;;;;;;5138181;27;19990;-62
2022/01/19 10:44:41;;;;;;;;;;;5.20;99.90;;;;;;5130970;27;20437;-61
2022/01/19 10:47:07;;;;;;;;;;;5.10;99.90;;;;;;5135744;27;19927;-64
2022/01/19 10:49:55;;;;;;;;;;;5.20;99.90;;;;;;5142413;27;20000;-61
2022/01/19 10:52:47;;;;;;;;;;;5.10;99.90;;;;;;5145524;27;19927;-56
2022/01/19 10:55:24;;;;;;;;;;;5.00;99.90;;;;;;5125547;27;19934;-57
2022/01/19 10:57:50;;;;;;;;;;;5.00;99.90;;;;;;5130972;27;19927;-58
2022/01/19 11:00:30;;;;;;;;;;;4.90;99.90;;;;;;5139895;27;20524;-63
2022/01/19 11:02:57;;;;;;;;;;;4.90;99.90;;;;;;5131090;27;19967;-62
2022/01/19 11:05:41;;;;;;;;;;;5.00;99.90;;;;;;5137541;27;19926;-63
2022/01/19 11:08:07;;;;;;;;;;;5.00;99.90;;;;;;5131179;27;19934;-64
2022/01/19 11:10:33;;;;;;;;;;;4.90;99.90;;;;;;5130473;27;19923;-62
2022/01/19 11:12:59;;;;;;;;;;;5.40;99.90;;;;;;5141436;27;20658;-64
2022/01/19 11:15:24;;;;;;;;;;;5.10;99.90;;;;;;5128932;27;19973;-58
2022/01/19 11:17:50;;;;;;;;;;;4.90;99.90;;;;;;5134430;27;20389;-58
2022/01/19 11:20:18;;;;;;;;;;;5.00;99.90;;;;;;5126726;27;19928;-60
2022/01/19 11:22:57;;;;;;;;;;;5.00;99.90;;;;;;5128766;27;19931;-60
2022/01/19 11:25:27;;;;;;;;;;;5.00;99.90;;;;;;5128515;27;19969;-59
2022/01/19 11:27:53;;;;;;;;;;;5.00;99.90;;;;;;5124765;27;20262;-60
2022/01/19 11:30:19;;;;;;;;;;;5.00;99.90;;;;;;5129695;27;20031;-59
2022/01/19 11:33:04;;;;;;;;;;;5.60;99.90;;;;;;5130099;27;20376;-60
2022/01/19 11:35:34;;;;;;;;;;;5.00;99.90;;;;;;5130723;27;20420;-59
2022/01/19 11:38:00;;;;;;;;;;;5.00;99.90;;;;;;5130540;27;20380;-57
2022/01/19 11:40:34;;;;;;;;;;;5.00;99.90;;;;;;5129195;27;19934;-56
2022/01/19 11:43:19;;;;;;;;;;;5.00;99.90;;;;;;5128761;27;19969;-56
2022/01/19 11:45:44;;;;;;;;;;;5.00;99.90;;;;;;5139621;27;19950;-56
2022/01/19 11:48:15;;;;;;;;;;;5.00;99.90;;;;;;5127719;27;20377;-56
2022/01/19 11:50:41;;;;;;;;;;;5.00;99.90;;;;;;5128078;27;19979;-56
2022/01/19 11:53:10;;;;;;;;;;;5.10;99.90;;;;;;5128812;27;19967;-56
2022/01/19 11:55:36;;;;;;;;;;;5.80;99.90;;;;;;5128259;27;20385;-56
2022/01/19 11:58:20;;;;;;;;;;;5.20;99.90;;;;;;5129437;27;19934;-55
2022/01/19 12:00:47;;;;;;;;;;;5.20;99.90;;;;;;5129113;27;19935;-56
2022/01/19 12:03:18;;;;;;;;;;;5.20;99.90;;;;;;5128294;27;19935;-56
2022/01/19 12:05:44;;;;;;;;;;;5.20;99.90;;;;;;5130971;27;20038;-56
2022/01/19 12:08:28;;;;;;;;;;;5.30;99.90;;;;;;5127145;27;19965;-58
2022/01/19 12:10:57;;;;;;;;;;;5.20;99.90;;;;;;5129605;27;20026;-57
2022/01/19 12:16:06;;;;;;;;;;;5.40;99.90;;;;;;5132952;27;19932;-56
2022/01/19 12:18:38;;;;;;;;;;;5.40;99.90;;;;;;5128530;27;19965;-55
2022/01/19 12:21:04;;;;;;;;;;;5.50;99.90;;;;;;5129789;27;19932;-56
2022/01/19 12:23:31;;;;;;;;;;;5.60;99.90;;;;;;5130797;27;19970;-56
2022/01/19 12:25:58;;;;;;;;;;;5.60;99.90;;;;;;5124137;27;19928;-56
2022/01/19 12:28:40;;;;;;;;;;;6.10;99.90;;;;;;5127457;27;19935;-56
2022/01/19 12:31:24;;;;;;;;;;;5.60;99.90;;;;;;5127504;27;19927;-56
2022/01/19 12:34:08;;;;;;;;;;;5.60;99.90;;;;;;5137363;27;19935;-56
2022/01/19 12:36:48;;;;;;;;;;;5.50;99.90;;;;;;5132826;27;20318;-56
2022/01/19 12:39:32;;;;;;;;;;;5.50;99.90;;;;;;5144259;27;19937;-60
2022/01/19 12:42:00;;;;;;;;;;;5.50;99.90;;;;;;5138992;27;20025;-56
2022/01/19 12:44:34;;;;;;;;;;;5.50;99.90;;;;;;5129753;27;19927;-63
2022/01/19 12:47:04;;;;;;;;;;;5.40;99.90;;;;;;5138992;27;19934;-64
2022/01/19 12:49:31;;;;;;;;;;;5.50;99.90;;;;;;5137339;27;19927;-56
2022/01/19 12:51:57;;;;;;;;;;;5.60;99.90;;;;;;5138230;27;19974;-60
2022/01/19 12:54:27;;;;;;;;;;;5.60;99.90;;;;;;5129063;27;20661;-59
2022/01/19 12:56:53;;;;;;;;;;;5.60;99.90;;;;;;5141704;27;19927;-59
2022/01/19 12:59:19;;;;;;;;;;;5.50;99.90;;;;;;5125597;27;19934;-58
2022/01/19 13:01:44;;;;;;;;;;;5.70;99.90;;;;;;5135702;27;19930;-60
2022/01/19 13:04:10;;;;;;;;;;;5.60;99.90;;;;;;5132873;27;20577;-64
2022/01/19 13:06:36;;;;;;;;;;;5.50;99.90;;;;;;5134124;27;19931;-60
2022/01/19 13:09:09;;;;;;;;;;;5.60;99.90;;;;;;5136665;27;19934;-61
2022/01/19 13:11:39;;;;;;;;;;;5.70;99.90;;;;;;5135581;27;19988;-59
2022/01/19 13:14:06;;;;;;;;;;;6.10;99.90;;;;;;5127219;27;20283;-56
2022/01/19 13:16:37;;;;;;;;;;;6.10;99.90;;;;;;5136740;27;19928;-57
2022/01/19 13:19:09;;;;;;;;;;;5.90;99.90;;;;;;5128907;27;19933;-56
2022/01/19 13:21:36;;;;;;;;;;;5.80;99.90;;;;;;5136622;27;20034;-57
2022/01/19 13:24:02;;;;;;;;;;;5.90;99.90;;;;;;5136339;27;19934;-60
2022/01/19 13:26:38;;;;;;;;;;;5.90;99.90;;;;;;5140944;27;19931;-56
2022/01/19 13:29:20;;;;;;;;;;;5.80;99.90;;;;;;5126069;27;19931;-55
2022/01/19 13:31:57;;;;;;;;;;;5.80;99.90;;;;;;5123670;27;20029;-63
2022/01/19 13:34:22;;;;;;;;;;;5.80;99.90;;;;;;5126148;27;20365;-57
2022/01/19 13:36:55;;;;;;;;;;;5.70;99.90;;;;;;5126537;27;20018;-64
2022/01/19 13:39:22;;;;;;;;;;;5.80;99.90;;;;;;5128789;27;19927;-57
2022/01/19 13:41:50;;;;;;;;;;;5.80;99.90;;;;;;5125788;27;19932;-58
2022/01/19 13:44:20;;;;;;;;;;;5.80;99.90;;;;;;5138682;27;19954;-64
2022/01/19 13:46:45;;;;;;;;;;;5.70;99.90;;;;;;5126901;27;19935;-64
2022/01/19 13:49:11;;;;;;;;;;;5.70;99.90;;;;;;5139041;27;19928;-64
2022/01/19 13:51:41;;;;;;;;;;;5.80;99.90;;;;;;5128004;27;19951;-61
2022/01/19 13:54:07;;;;;;;;;;;5.80;99.90;;;;;;5132470;27;19931;-61
2022/01/19 13:56:35;;;;;;;;;;;5.70;99.90;;;;;;5130178;27;19969;-59
2022/01/19 13:59:03;;;;;;;;;;;5.70;99.90;;;;;;5139996;27;19935;-56
2022/01/19 14:01:37;;;;;;;;;;;5.70;99.90;;;;;;5130357;27;19961;-56
2022/01/19 14:04:06;;;;;;;;;;;5.70;99.90;;;;;;5128869;27;20033;-57
2022/01/19 14:06:32;;;;;;;;;;;5.90;99.90;;;;;;5128997;27;19970;-57
2022/01/19 14:09:14;;;;;;;;;;;5.70;99.90;;;;;;5134729;27;20025;-55
2022/01/19 14:11:41;;;;;;;;;;;5.60;99.90;;;;;;5130942;27;19934;-57
2022/01/19 14:14:11;;;;;;;;;;;5.60;99.90;;;;;;5130365;27;19962;-56
2022/01/19 14:16:42;;;;;;;;;;;5.60;99.90;;;;;;5126431;27;19927;-56
2022/01/19 14:19:13;;;;;;;;;;;5.50;99.90;;;;;;5130557;27;19927;-57
2022/01/19 14:21:52;;;;;;;;;;;5.50;99.90;;;;;;5128587;27;19931;-55
2022/01/19 14:24:17;;;;;;;;;;;5.50;99.90;;;;;;5138024;27;20042;-55
2022/01/19 14:26:52;;;;;;;;;;;5.50;99.90;;;;;;5140372;27;19932;-58
2022/01/19 14:29:18;;;;;;;;;;;5.40;99.90;;;;;;5148532;27;19941;-56
2022/01/19 14:31:50;;;;;;;;;;;5.50;99.90;;;;;;5144418;27;19931;-57
2022/01/19 14:34:15;;;;;;;;;;;5.50;99.90;;;;;;5137416;27;19935;-59
2022/01/19 14:36:41;;;;;;;;;;;5.40;99.90;;;;;;5136061;27;19927;-59
2022/01/19 14:39:07;;;;;;;;;;;5.40;99.90;;;;;;5131762;27;19999;-56
2022/01/19 14:41:37;;;;;;;;;;;5.40;99.90;;;;;;5142569;27;19931;-59
2022/01/19 14:44:07;;;;;;;;;;;5.40;99.90;;;;;;5128284;27;19978;-59
2022/01/19 14:46:39;;;;;;;;;;;5.30;99.90;;;;;;5137141;27;20389;-57
2022/01/19 14:49:05;;;;;;;;;;;5.40;99.90;;;;;;5129410;27;19928;-59
2022/01/19 14:51:31;;;;;;;;;;;5.30;99.90;;;;;;5134162;27;19927;-59
2022/01/19 14:53:58;;;;;;;;;;;5.30;99.90;;;;;;5129865;27;19931;-59
2022/01/19 14:56:24;;;;;;;;;;;5.30;99.90;;;;;;5127767;27;19931;-57
2022/01/19 14:59:04;;;;;;;;;;;5.30;99.90;;;;;;5131496;27;20027;-56
2022/01/19 15:01:30;;;;;;;;;;;5.20;99.90;;;;;;5130873;27;20463;-64
2022/01/19 15:03:55;;;;;;;;;;;5.30;99.90;;;;;;5141128;27;19935;-58
2022/01/19 15:06:21;;;;;;;;;;;5.30;99.90;;;;;;5134760;27;20400;-57
2022/01/19 15:08:47;;;;;;;;;;;5.30;99.90;;;;;;5141115;27;20275;-58
2022/01/19 15:11:15;;;;;;;;;;;5.30;99.90;;;;;;5132395;27;20022;-56
2022/01/19 15:13:41;;;;;;;;;;;5.20;99.90;;;;;;5132886;27;19945;-56
2022/01/19 15:16:07;;;;;;;;;;;5.20;99.90;;;;;;5128624;27;19928;-59
2022/01/19 15:18:32;;;;;;;;;;;5.30;99.90;;;;;;5128642;27;19940;-57
2022/01/19 15:20:58;;;;;;;;;;;5.40;99.90;;;;;;5130386;27;20025;-57
2022/01/19 15:23:23;;;;;;;;;;;5.20;99.90;;;;;;5127432;27;19931;-60
2022/01/19 15:25:49;;;;;;;;;;;5.30;99.90;;;;;;5129795;27;19931;-64
2022/01/19 15:28:15;;;;;;;;;;;5.30;99.90;;;;;;5127105;27;20041;-57
2022/01/19 15:30:43;;;;;;;;;;;5.30;99.90;;;;;;5125831;27;20013;-56
2022/01/19 15:33:08;;;;;;;;;;;5.30;99.90;;;;;;5130643;27;20927;-57
2022/01/19 15:35:37;;;;;;;;;;;5.30;99.90;;;;;;5134286;27;19939;-58
2022/01/19 15:38:03;;;;;;;;;;;5.70;99.90;;;;;;5132751;27;20440;-58
2022/01/19 15:40:29;;;;;;;;;;;6.40;99.90;;;;;;5128853;27;20456;-56
2022/01/19 15:42:56;;;;;;;;;;;5.30;99.90;;;;;;5134788;27;20034;-56
2022/01/19 15:45:21;;;;;;;;;;;5.30;99.90;;;;;;5133063;27;19927;-56
2022/01/19 15:47:47;;;;;;;;;;;5.40;99.90;;;;;;5131062;27;20737;-56
2022/01/19 15:50:13;;;;;;;;;;;5.40;99.90;;;;;;5128338;27;19927;-56
2022/01/19 15:52:39;;;;;;;;;;;5.40;99.90;;;;;;5128616;27;19934;-56
2022/01/19 15:55:05;;;;;;;;;;;5.40;99.90;;;;;;5129843;27;19928;-56
2022/01/19 15:57:31;;;;;;;;;;;5.40;99.90;;;;;;5132338;27;19927;-56
2022/01/19 15:59:58;;;;;;;;;;;5.40;99.90;;;;;;5137669;27;19927;-56
2022/01/19 16:02:24;;;;;;;;;;;5.50;99.90;;;;;;5133896;27;20327;-56
2022/01/19 16:04:50;;;;;;;;;;;5.50;99.90;;;;;;5138242;27;20185;-55